sensor_id;sensor_type;location;lat;lon;timestamp;P1;durP1;ratioP1;P2;durP2;ratioP2
64387;SDS011;50709;52.648;4.764;2022-11-11T00:01:29;9.60;;;3.60;;
64387;SDS011;50709;52.648;4.764;2022-11-11T00:03:54;9.93;;;3.63;;
64387;SDS011;50709;52.648;4.764;2022-11-11T00:06:22;7.28;;;3.85;;
64387;SDS011;50709;52.648;4.764;2022-11-11T00:08:48;10.38;;;3.88;;
64387;SDS011;50709;52.648;4.764;2022-11-11T00:11:14;8.52;;;3.97;;
64387;SDS011;50709;52.648;4.764;2022-11-11T00:13:41;8.93;;;3.97;;
64387;SDS011;50709;52.648;4.764;2022-11-11T00:16:08;10.50;;;3.92;;
64387;SDS011;50709;52.648;4.764;2022-11-11T00:18:38;7.68;;;3.70;;
64387;SDS011;50709;52.648;4.764;2022-11-11T00:21:24;9.25;;;4.32;;
64387;SDS011;50709;52.648;4.764;2022-11-11T00:27:03;9.00;;;3.90;;
64387;SDS011;50709;52.648;4.764;2022-11-11T00:29:29;6.53;;;3.63;;
64387;SDS011;50709;52.648;4.764;2022-11-11T00:31:54;9.15;;;3.85;;
64387;SDS011;50709;52.648;4.764;2022-11-11T00:34:38;9.77;;;4.32;;
64387;SDS011;50709;52.648;4.764;2022-11-11T00:37:04;8.05;;;3.88;;
64387;SDS011;50709;52.648;4.764;2022-11-11T00:39:29;7.55;;;4.07;;
64387;SDS011;50709;52.648;4.764;2022-11-11T00:41:54;6.40;;;3.70;;
64387;SDS011;50709;52.648;4.764;2022-11-11T00:44:20;8.07;;;3.90;;
64387;SDS011;50709;52.648;4.764;2022-11-11T00:46:45;10.45;;;3.80;;
64387;SDS011;50709;52.648;4.764;2022-11-11T00:49:29;8.52;;;3.83;;
64387;SDS011;50709;52.648;4.764;2022-11-11T00:52:13;9.85;;;4.30;;
64387;SDS011;50709;52.648;4.764;2022-11-11T00:54:38;9.18;;;4.30;;
64387;SDS011;50709;52.648;4.764;2022-11-11T00:57:03;6.30;;;3.75;;
64387;SDS011;50709;52.648;4.764;2022-11-11T00:59:29;10.70;;;4.07;;
64387;SDS011;50709;52.648;4.764;2022-11-11T01:01:54;9.95;;;3.80;;
64387;SDS011;50709;52.648;4.764;2022-11-11T01:04:19;8.25;;;3.80;;
64387;SDS011;50709;52.648;4.764;2022-11-11T01:06:45;9.70;;;3.55;;
64387;SDS011;50709;52.648;4.764;2022-11-11T01:09:10;7.53;;;4.07;;
64387;SDS011;50709;52.648;4.764;2022-11-11T01:11:35;7.18;;;4.03;;
64387;SDS011;50709;52.648;4.764;2022-11-11T01:14:00;8.88;;;4.00;;
64387;SDS011;50709;52.648;4.764;2022-11-11T01:16:26;9.82;;;3.65;;
64387;SDS011;50709;52.648;4.764;2022-11-11T01:18:52;9.98;;;4.20;;
64387;SDS011;50709;52.648;4.764;2022-11-11T01:21:19;10.25;;;3.80;;
64387;SDS011;50709;52.648;4.764;2022-11-11T01:23:47;7.68;;;4.30;;
64387;SDS011;50709;52.648;4.764;2022-11-11T01:28:47;8.45;;;4.53;;
64387;SDS011;50709;52.648;4.764;2022-11-11T01:31:14;12.65;;;4.25;;
64387;SDS011;50709;52.648;4.764;2022-11-11T01:33:41;9.75;;;3.75;;
64387;SDS011;50709;52.648;4.764;2022-11-11T01:36:10;12.40;;;4.80;;
64387;SDS011;50709;52.648;4.764;2022-11-11T01:38:40;9.20;;;4.22;;
64387;SDS011;50709;52.648;4.764;2022-11-11T01:41:12;12.07;;;4.28;;
64387;SDS011;50709;52.648;4.764;2022-11-11T01:43:58;11.10;;;4.35;;
64387;SDS011;50709;52.648;4.764;2022-11-11T01:46:54;13.15;;;4.72;;
64387;SDS011;50709;52.648;4.764;2022-11-11T01:52:12;10.23;;;4.68;;
64387;SDS011;50709;52.648;4.764;2022-11-11T01:55:06;9.45;;;4.97;;
64387;SDS011;50709;52.648;4.764;2022-11-11T01:57:42;8.77;;;4.88;;
64387;SDS011;50709;52.648;4.764;2022-11-11T02:00:13;11.02;;;5.18;;
64387;SDS011;50709;52.648;4.764;2022-11-11T02:02:42;12.02;;;4.18;;
64387;SDS011;50709;52.648;4.764;2022-11-11T02:05:12;9.38;;;4.75;;
64387;SDS011;50709;52.648;4.764;2022-11-11T02:07:58;9.48;;;4.85;;
64387;SDS011;50709;52.648;4.764;2022-11-11T02:10:28;10.02;;;5.00;;
64387;SDS011;50709;52.648;4.764;2022-11-11T02:12:55;8.73;;;4.97;;
64387;SDS011;50709;52.648;4.764;2022-11-11T02:15:39;13.43;;;5.38;;
64387;SDS011;50709;52.648;4.764;2022-11-11T02:18:04;12.57;;;4.95;;
64387;SDS011;50709;52.648;4.764;2022-11-11T02:20:32;11.98;;;5.65;;
64387;SDS011;50709;52.648;4.764;2022-11-11T02:23:02;9.88;;;4.88;;
64387;SDS011;50709;52.648;4.764;2022-11-11T02:25:31;10.15;;;5.22;;
64387;SDS011;50709;52.648;4.764;2022-11-11T02:27:58;12.18;;;5.35;;
64387;SDS011;50709;52.648;4.764;2022-11-11T02:30:27;9.00;;;5.03;;
64387;SDS011;50709;52.648;4.764;2022-11-11T02:32:52;9.75;;;4.85;;
64387;SDS011;50709;52.648;4.764;2022-11-11T02:35:20;14.65;;;6.32;;
64387;SDS011;50709;52.648;4.764;2022-11-11T02:37:49;10.68;;;5.35;;
64387;SDS011;50709;52.648;4.764;2022-11-11T02:40:17;11.82;;;5.63;;
64387;SDS011;50709;52.648;4.764;2022-11-11T02:42:45;10.73;;;5.72;;
64387;SDS011;50709;52.648;4.764;2022-11-11T02:45:11;14.60;;;5.63;;
64387;SDS011;50709;52.648;4.764;2022-11-11T02:47:36;10.57;;;5.20;;
64387;SDS011;50709;52.648;4.764;2022-11-11T02:50:02;11.55;;;5.43;;
64387;SDS011;50709;52.648;4.764;2022-11-11T02:52:28;12.35;;;6.18;;
64387;SDS011;50709;52.648;4.764;2022-11-11T02:54:53;12.35;;;5.35;;
64387;SDS011;50709;52.648;4.764;2022-11-11T02:57:18;12.80;;;6.15;;
64387;SDS011;50709;52.648;4.764;2022-11-11T02:59:43;14.40;;;6.18;;
64387;SDS011;50709;52.648;4.764;2022-11-11T03:02:09;14.48;;;6.75;;
64387;SDS011;50709;52.648;4.764;2022-11-11T03:04:34;12.57;;;6.28;;
64387;SDS011;50709;52.648;4.764;2022-11-11T03:07:01;15.07;;;6.32;;
64387;SDS011;50709;52.648;4.764;2022-11-11T03:09:26;12.50;;;6.57;;
64387;SDS011;50709;52.648;4.764;2022-11-11T03:11:52;12.98;;;7.07;;
64387;SDS011;50709;52.648;4.764;2022-11-11T03:14:17;18.15;;;6.63;;
64387;SDS011;50709;52.648;4.764;2022-11-11T03:16:43;16.05;;;7.18;;
64387;SDS011;50709;52.648;4.764;2022-11-11T03:19:27;14.10;;;6.75;;
64387;SDS011;50709;52.648;4.764;2022-11-11T03:21:52;15.27;;;6.20;;
64387;SDS011;50709;52.648;4.764;2022-11-11T03:24:19;13.27;;;6.82;;
64387;SDS011;50709;52.648;4.764;2022-11-11T03:26:45;15.73;;;6.97;;
64387;SDS011;50709;52.648;4.764;2022-11-11T03:29:10;13.38;;;7.25;;
64387;SDS011;50709;52.648;4.764;2022-11-11T03:31:35;14.35;;;6.15;;
64387;SDS011;50709;52.648;4.764;2022-11-11T03:34:01;13.52;;;6.50;;
64387;SDS011;50709;52.648;4.764;2022-11-11T03:36:44;16.73;;;6.72;;
64387;SDS011;50709;52.648;4.764;2022-11-11T03:39:29;16.23;;;7.47;;
64387;SDS011;50709;52.648;4.764;2022-11-11T03:41:55;15.02;;;7.38;;
64387;SDS011;50709;52.648;4.764;2022-11-11T03:44:21;15.93;;;7.15;;
64387;SDS011;50709;52.648;4.764;2022-11-11T03:46:46;15.70;;;7.65;;
64387;SDS011;50709;52.648;4.764;2022-11-11T03:49:11;17.95;;;7.28;;
64387;SDS011;50709;52.648;4.764;2022-11-11T03:51:37;15.70;;;7.65;;
64387;SDS011;50709;52.648;4.764;2022-11-11T03:54:02;16.48;;;7.70;;
64387;SDS011;50709;52.648;4.764;2022-11-11T03:56:27;15.93;;;7.78;;
64387;SDS011;50709;52.648;4.764;2022-11-11T03:58:53;19.98;;;8.98;;
64387;SDS011;50709;52.648;4.764;2022-11-11T04:01:18;15.88;;;7.75;;
64387;SDS011;50709;52.648;4.764;2022-11-11T04:04:02;13.73;;;7.07;;
64387;SDS011;50709;52.648;4.764;2022-11-11T04:06:46;18.20;;;8.27;;
64387;SDS011;50709;52.648;4.764;2022-11-11T04:09:30;17.35;;;8.07;;
64387;SDS011;50709;52.648;4.764;2022-11-11T04:12:14;15.40;;;7.75;;
64387;SDS011;50709;52.648;4.764;2022-11-11T04:14:39;17.67;;;8.20;;
64387;SDS011;50709;52.648;4.764;2022-11-11T04:17:23;17.45;;;8.50;;
64387;SDS011;50709;52.648;4.764;2022-11-11T04:19:48;18.27;;;8.23;;
64387;SDS011;50709;52.648;4.764;2022-11-11T04:22:32;20.77;;;9.35;;
64387;SDS011;50709;52.648;4.764;2022-11-11T04:25:05;14.82;;;8.25;;
64387;SDS011;50709;52.648;4.764;2022-11-11T04:27:49;18.13;;;8.50;;
64387;SDS011;50709;52.648;4.764;2022-11-11T04:30:35;18.33;;;8.27;;
64387;SDS011;50709;52.648;4.764;2022-11-11T04:33:00;18.38;;;8.68;;
64387;SDS011;50709;52.648;4.764;2022-11-11T04:35:25;16.25;;;8.45;;
64387;SDS011;50709;52.648;4.764;2022-11-11T04:37:50;19.13;;;7.85;;
64387;SDS011;50709;52.648;4.764;2022-11-11T04:40:36;15.20;;;8.20;;
64387;SDS011;50709;52.648;4.764;2022-11-11T04:43:20;16.70;;;8.85;;
64387;SDS011;50709;52.648;4.764;2022-11-11T04:45:45;17.27;;;8.27;;
64387;SDS011;50709;52.648;4.764;2022-11-11T04:48:10;17.30;;;8.23;;
64387;SDS011;50709;52.648;4.764;2022-11-11T04:50:38;14.73;;;7.57;;
64387;SDS011;50709;52.648;4.764;2022-11-11T04:53:05;18.17;;;8.02;;
64387;SDS011;50709;52.648;4.764;2022-11-11T04:55:38;17.77;;;8.45;;
64387;SDS011;50709;52.648;4.764;2022-11-11T04:58:24;17.25;;;8.20;;
64387;SDS011;50709;52.648;4.764;2022-11-11T05:00:51;14.35;;;7.85;;
64387;SDS011;50709;52.648;4.764;2022-11-11T05:03:17;16.25;;;8.48;;
64387;SDS011;50709;52.648;4.764;2022-11-11T05:05:49;14.75;;;7.85;;
64387;SDS011;50709;52.648;4.764;2022-11-11T05:08:36;19.63;;;8.70;;
64387;SDS011;50709;52.648;4.764;2022-11-11T05:13:50;17.02;;;7.72;;
64387;SDS011;50709;52.648;4.764;2022-11-11T05:16:37;16.92;;;8.23;;
64387;SDS011;50709;52.648;4.764;2022-11-11T05:19:25;17.65;;;7.45;;
64387;SDS011;50709;52.648;4.764;2022-11-11T05:22:11;14.75;;;7.53;;
64387;SDS011;50709;52.648;4.764;2022-11-11T05:24:42;19.38;;;8.85;;
64387;SDS011;50709;52.648;4.764;2022-11-11T05:27:26;15.32;;;8.73;;
64387;SDS011;50709;52.648;4.764;2022-11-11T05:29:52;14.88;;;7.57;;
64387;SDS011;50709;52.648;4.764;2022-11-11T05:32:18;15.48;;;8.15;;
64387;SDS011;50709;52.648;4.764;2022-11-11T05:34:45;15.77;;;8.02;;
64387;SDS011;50709;52.648;4.764;2022-11-11T05:37:11;16.02;;;8.07;;
64387;SDS011;50709;52.648;4.764;2022-11-11T05:39:37;12.55;;;7.50;;
64387;SDS011;50709;52.648;4.764;2022-11-11T05:42:02;19.73;;;8.85;;
64387;SDS011;50709;52.648;4.764;2022-11-11T05:44:28;15.35;;;7.47;;
64387;SDS011;50709;52.648;4.764;2022-11-11T05:46:53;18.70;;;7.60;;
64387;SDS011;50709;52.648;4.764;2022-11-11T05:49:18;17.20;;;8.30;;
64387;SDS011;50709;52.648;4.764;2022-11-11T05:51:44;17.95;;;7.88;;
64387;SDS011;50709;52.648;4.764;2022-11-11T05:54:10;16.27;;;7.90;;
64387;SDS011;50709;52.648;4.764;2022-11-11T05:56:35;19.70;;;8.75;;
64387;SDS011;50709;52.648;4.764;2022-11-11T05:59:01;16.33;;;8.35;;
64387;SDS011;50709;52.648;4.764;2022-11-11T06:01:26;20.25;;;8.23;;
64387;SDS011;50709;52.648;4.764;2022-11-11T06:03:52;14.65;;;7.70;;
64387;SDS011;50709;52.648;4.764;2022-11-11T06:06:17;15.10;;;7.78;;
64387;SDS011;50709;52.648;4.764;2022-11-11T06:08:42;16.67;;;8.05;;
64387;SDS011;50709;52.648;4.764;2022-11-11T06:11:08;14.48;;;7.72;;
64387;SDS011;50709;52.648;4.764;2022-11-11T06:13:33;17.98;;;8.00;;
64387;SDS011;50709;52.648;4.764;2022-11-11T06:15:59;20.15;;;8.85;;
64387;SDS011;50709;52.648;4.764;2022-11-11T06:18:24;17.55;;;8.43;;
64387;SDS011;50709;52.648;4.764;2022-11-11T06:20:53;17.98;;;8.38;;
64387;SDS011;50709;52.648;4.764;2022-11-11T06:23:19;19.58;;;9.45;;
64387;SDS011;50709;52.648;4.764;2022-11-11T06:25:45;19.05;;;9.52;;
64387;SDS011;50709;52.648;4.764;2022-11-11T06:28:29;18.90;;;9.98;;
64387;SDS011;50709;52.648;4.764;2022-11-11T06:30:54;19.27;;;9.90;;
64387;SDS011;50709;52.648;4.764;2022-11-11T06:33:19;16.98;;;8.93;;
64387;SDS011;50709;52.648;4.764;2022-11-11T06:35:46;19.33;;;10.60;;
64387;SDS011;50709;52.648;4.764;2022-11-11T06:38:12;18.88;;;9.30;;
64387;SDS011;50709;52.648;4.764;2022-11-11T06:40:38;15.00;;;8.48;;
64387;SDS011;50709;52.648;4.764;2022-11-11T06:43:04;15.18;;;8.43;;
64387;SDS011;50709;52.648;4.764;2022-11-11T06:45:29;16.23;;;8.27;;
64387;SDS011;50709;52.648;4.764;2022-11-11T06:47:55;17.17;;;8.13;;
64387;SDS011;50709;52.648;4.764;2022-11-11T06:50:21;17.42;;;8.07;;
64387;SDS011;50709;52.648;4.764;2022-11-11T06:52:46;19.13;;;8.15;;
64387;SDS011;50709;52.648;4.764;2022-11-11T06:55:12;16.65;;;8.73;;
64387;SDS011;50709;52.648;4.764;2022-11-11T06:57:38;15.98;;;7.75;;
64387;SDS011;50709;52.648;4.764;2022-11-11T07:00:04;13.93;;;8.25;;
64387;SDS011;50709;52.648;4.764;2022-11-11T07:02:30;16.10;;;8.02;;
64387;SDS011;50709;52.648;4.764;2022-11-11T07:04:56;16.23;;;7.43;;
64387;SDS011;50709;52.648;4.764;2022-11-11T07:07:22;16.90;;;8.20;;
64387;SDS011;50709;52.648;4.764;2022-11-11T07:09:47;15.23;;;7.85;;
64387;SDS011;50709;52.648;4.764;2022-11-11T07:12:13;15.43;;;7.18;;
64387;SDS011;50709;52.648;4.764;2022-11-11T07:14:38;13.10;;;7.95;;
64387;SDS011;50709;52.648;4.764;2022-11-11T07:17:04;15.50;;;7.97;;
64387;SDS011;50709;52.648;4.764;2022-11-11T07:19:29;15.48;;;7.68;;
64387;SDS011;50709;52.648;4.764;2022-11-11T07:21:54;15.38;;;7.55;;
64387;SDS011;50709;52.648;4.764;2022-11-11T07:24:20;12.68;;;6.38;;
64387;SDS011;50709;52.648;4.764;2022-11-11T07:26:45;15.90;;;7.40;;
64387;SDS011;50709;52.648;4.764;2022-11-11T07:29:11;14.90;;;7.40;;
64387;SDS011;50709;52.648;4.764;2022-11-11T07:31:38;17.77;;;8.00;;
64387;SDS011;50709;52.648;4.764;2022-11-11T07:34:03;16.65;;;8.38;;
64387;SDS011;50709;52.648;4.764;2022-11-11T07:36:29;16.70;;;8.07;;
64387;SDS011;50709;52.648;4.764;2022-11-11T07:38:54;17.70;;;8.45;;
64387;SDS011;50709;52.648;4.764;2022-11-11T07:41:19;15.35;;;7.65;;
64387;SDS011;50709;52.648;4.764;2022-11-11T07:43:45;16.15;;;7.72;;
64387;SDS011;50709;52.648;4.764;2022-11-11T07:46:10;13.43;;;7.30;;
64387;SDS011;50709;52.648;4.764;2022-11-11T07:48:35;14.05;;;7.47;;
64387;SDS011;50709;52.648;4.764;2022-11-11T07:51:00;18.98;;;7.78;;
64387;SDS011;50709;52.648;4.764;2022-11-11T07:53:26;16.15;;;7.00;;
64387;SDS011;50709;52.648;4.764;2022-11-11T07:55:52;15.05;;;7.88;;
64387;SDS011;50709;52.648;4.764;2022-11-11T07:58:18;17.40;;;8.23;;
64387;SDS011;50709;52.648;4.764;2022-11-11T08:00:43;14.50;;;7.47;;
64387;SDS011;50709;52.648;4.764;2022-11-11T08:03:09;16.23;;;7.03;;
64387;SDS011;50709;52.648;4.764;2022-11-11T08:05:34;14.45;;;7.90;;
64387;SDS011;50709;52.648;4.764;2022-11-11T08:08:06;18.98;;;7.53;;
64387;SDS011;50709;52.648;4.764;2022-11-11T08:10:33;14.90;;;8.13;;
64387;SDS011;50709;52.648;4.764;2022-11-11T08:12:59;13.13;;;7.47;;
64387;SDS011;50709;52.648;4.764;2022-11-11T08:15:44;16.70;;;7.65;;
64387;SDS011;50709;52.648;4.764;2022-11-11T08:18:09;13.35;;;7.28;;
64387;SDS011;50709;52.648;4.764;2022-11-11T08:20:35;13.40;;;7.50;;
64387;SDS011;50709;52.648;4.764;2022-11-11T08:23:00;16.08;;;7.97;;
64387;SDS011;50709;52.648;4.764;2022-11-11T08:25:28;14.88;;;7.53;;
64387;SDS011;50709;52.648;4.764;2022-11-11T08:27:57;16.05;;;8.05;;
64387;SDS011;50709;52.648;4.764;2022-11-11T08:30:27;15.43;;;7.85;;
64387;SDS011;50709;52.648;4.764;2022-11-11T08:33:00;13.85;;;7.78;;
64387;SDS011;50709;52.648;4.764;2022-11-11T08:35:30;14.20;;;7.90;;
64387;SDS011;50709;52.648;4.764;2022-11-11T08:37:59;14.23;;;7.38;;
64387;SDS011;50709;52.648;4.764;2022-11-11T08:40:26;13.75;;;7.63;;
64387;SDS011;50709;52.648;4.764;2022-11-11T08:42:54;15.40;;;8.15;;
64387;SDS011;50709;52.648;4.764;2022-11-11T08:45:21;16.63;;;8.50;;
64387;SDS011;50709;52.648;4.764;2022-11-11T08:47:47;13.50;;;7.72;;
64387;SDS011;50709;52.648;4.764;2022-11-11T08:50:12;16.55;;;8.20;;
64387;SDS011;50709;52.648;4.764;2022-11-11T08:52:37;17.35;;;8.02;;
64387;SDS011;50709;52.648;4.764;2022-11-11T08:55:09;13.77;;;7.57;;
64387;SDS011;50709;52.648;4.764;2022-11-11T08:57:34;17.40;;;8.77;;
64387;SDS011;50709;52.648;4.764;2022-11-11T08:59:59;14.73;;;7.72;;
64387;SDS011;50709;52.648;4.764;2022-11-11T09:02:25;14.88;;;7.50;;
64387;SDS011;50709;52.648;4.764;2022-11-11T09:04:50;13.75;;;7.82;;
64387;SDS011;50709;52.648;4.764;2022-11-11T09:07:15;15.23;;;8.18;;
64387;SDS011;50709;52.648;4.764;2022-11-11T09:09:41;14.05;;;7.97;;
64387;SDS011;50709;52.648;4.764;2022-11-11T09:12:06;15.90;;;7.88;;
64387;SDS011;50709;52.648;4.764;2022-11-11T09:14:31;13.57;;;8.00;;
64387;SDS011;50709;52.648;4.764;2022-11-11T09:16:56;16.10;;;8.38;;
64387;SDS011;50709;52.648;4.764;2022-11-11T09:19:22;13.50;;;7.88;;
64387;SDS011;50709;52.648;4.764;2022-11-11T09:21:49;15.65;;;8.20;;
64387;SDS011;50709;52.648;4.764;2022-11-11T09:24:15;15.82;;;7.70;;
64387;SDS011;50709;52.648;4.764;2022-11-11T09:26:40;16.92;;;8.25;;
64387;SDS011;50709;52.648;4.764;2022-11-11T09:29:06;14.73;;;7.95;;
64387;SDS011;50709;52.648;4.764;2022-11-11T09:31:31;17.20;;;9.05;;
64387;SDS011;50709;52.648;4.764;2022-11-11T09:33:56;15.20;;;7.68;;
64387;SDS011;50709;52.648;4.764;2022-11-11T09:36:22;13.75;;;8.00;;
64387;SDS011;50709;52.648;4.764;2022-11-11T09:38:47;17.63;;;8.40;;
64387;SDS011;50709;52.648;4.764;2022-11-11T09:41:20;16.65;;;7.60;;
64387;SDS011;50709;52.648;4.764;2022-11-11T09:43:55;15.07;;;7.85;;
64387;SDS011;50709;52.648;4.764;2022-11-11T09:46:36;12.85;;;7.40;;
64387;SDS011;50709;52.648;4.764;2022-11-11T09:52:13;13.35;;;7.50;;
64387;SDS011;50709;52.648;4.764;2022-11-11T09:54:47;15.30;;;7.95;;
64387;SDS011;50709;52.648;4.764;2022-11-11T09:57:18;13.25;;;7.32;;
64387;SDS011;50709;52.648;4.764;2022-11-11T09:59:53;15.30;;;7.78;;
64387;SDS011;50709;52.648;4.764;2022-11-11T10:02:33;15.98;;;7.85;;
64387;SDS011;50709;52.648;4.764;2022-11-11T10:05:16;16.75;;;7.32;;
64387;SDS011;50709;52.648;4.764;2022-11-11T10:10:57;14.52;;;7.25;;
64387;SDS011;50709;52.648;4.764;2022-11-11T10:13:13;11.85;;;6.75;;
64387;SDS011;50709;52.648;4.764;2022-11-11T10:15:57;12.82;;;6.93;;
64387;SDS011;50709;52.648;4.764;2022-11-11T10:21:07;14.43;;;7.63;;
64387;SDS011;50709;52.648;4.764;2022-11-11T10:23:38;15.70;;;7.88;;
64387;SDS011;50709;52.648;4.764;2022-11-11T10:26:11;13.75;;;7.57;;
64387;SDS011;50709;52.648;4.764;2022-11-11T10:28:43;14.75;;;7.35;;
64387;SDS011;50709;52.648;4.764;2022-11-11T10:31:13;15.88;;;7.43;;
64387;SDS011;50709;52.648;4.764;2022-11-11T10:36:15;17.80;;;8.40;;
64387;SDS011;50709;52.648;4.764;2022-11-11T10:38:48;16.05;;;7.78;;
64387;SDS011;50709;52.648;4.764;2022-11-11T10:41:20;13.90;;;7.20;;
64387;SDS011;50709;52.648;4.764;2022-11-11T10:43:51;13.65;;;7.60;;
64387;SDS011;50709;52.648;4.764;2022-11-11T10:48:50;15.27;;;7.32;;
64387;SDS011;50709;52.648;4.764;2022-11-11T10:51:27;12.85;;;7.28;;
64387;SDS011;50709;52.648;4.764;2022-11-11T10:56:45;14.18;;;8.23;;
64387;SDS011;50709;52.648;4.764;2022-11-11T10:59:40;13.55;;;6.85;;
64387;SDS011;50709;52.648;4.764;2022-11-11T11:02:16;14.57;;;7.65;;
64387;SDS011;50709;52.648;4.764;2022-11-11T11:04:52;12.55;;;7.32;;
64387;SDS011;50709;52.648;4.764;2022-11-11T11:07:26;13.95;;;7.65;;
64387;SDS011;50709;52.648;4.764;2022-11-11T11:09:59;16.92;;;7.40;;
64387;SDS011;50709;52.648;4.764;2022-11-11T11:14:55;13.35;;;6.90;;
64387;SDS011;50709;52.648;4.764;2022-11-11T11:17:28;14.73;;;7.47;;
64387;SDS011;50709;52.648;4.764;2022-11-11T11:20:16;13.90;;;6.85;;
64387;SDS011;50709;52.648;4.764;2022-11-11T11:22:51;14.10;;;7.68;;
64387;SDS011;50709;52.648;4.764;2022-11-11T11:25:19;13.95;;;7.18;;
64387;SDS011;50709;52.648;4.764;2022-11-11T11:27:45;14.88;;;7.60;;
64387;SDS011;50709;52.648;4.764;2022-11-11T11:30:15;14.13;;;7.13;;
64387;SDS011;50709;52.648;4.764;2022-11-11T11:32:56;14.35;;;7.35;;
64387;SDS011;50709;52.648;4.764;2022-11-11T11:35:30;13.35;;;7.30;;
64387;SDS011;50709;52.648;4.764;2022-11-11T11:37:56;13.05;;;7.25;;
64387;SDS011;50709;52.648;4.764;2022-11-11T11:40:21;12.50;;;7.30;;
64387;SDS011;50709;52.648;4.764;2022-11-11T11:42:46;12.70;;;7.60;;
64387;SDS011;50709;52.648;4.764;2022-11-11T11:45:32;12.85;;;7.53;;
64387;SDS011;50709;52.648;4.764;2022-11-11T11:50:57;10.02;;;6.68;;
64387;SDS011;50709;52.648;4.764;2022-11-11T11:56:52;13.15;;;7.22;;
64387;SDS011;50709;52.648;4.764;2022-11-11T11:59:42;12.20;;;6.70;;
64387;SDS011;50709;52.648;4.764;2022-11-11T12:10:26;12.57;;;6.65;;
64387;SDS011;50709;52.648;4.764;2022-11-11T12:15:46;14.77;;;7.72;;
64387;SDS011;50709;52.648;4.764;2022-11-11T12:21:21;16.02;;;7.93;;
64387;SDS011;50709;52.648;4.764;2022-11-11T12:23:58;15.52;;;7.05;;
64387;SDS011;50709;52.648;4.764;2022-11-11T12:38:19;14.43;;;7.13;;
64387;SDS011;50709;52.648;4.764;2022-11-11T13:05:13;15.73;;;7.75;;
64387;SDS011;50709;52.648;4.764;2022-11-11T13:07:51;16.63;;;7.30;;
64387;SDS011;50709;52.648;4.764;2022-11-11T13:13:25;17.90;;;7.13;;
64387;SDS011;50709;52.648;4.764;2022-11-11T13:15:52;18.60;;;7.82;;
64387;SDS011;50709;52.648;4.764;2022-11-11T13:18:19;15.57;;;6.93;;
64387;SDS011;50709;52.648;4.764;2022-11-11T13:23:22;14.80;;;7.32;;
64387;SDS011;50709;52.648;4.764;2022-11-11T13:25:48;13.80;;;7.55;;
64387;SDS011;50709;52.648;4.764;2022-11-11T13:31:10;16.67;;;7.50;;
64387;SDS011;50709;52.648;4.764;2022-11-11T13:33:45;17.70;;;8.77;;
64387;SDS011;50709;52.648;4.764;2022-11-11T13:36:17;13.63;;;7.70;;
64387;SDS011;50709;52.648;4.764;2022-11-11T13:38:55;13.68;;;7.68;;
64387;SDS011;50709;52.648;4.764;2022-11-11T13:41:31;14.13;;;7.53;;
64387;SDS011;50709;52.648;4.764;2022-11-11T13:43:59;17.33;;;8.27;;
64387;SDS011;50709;52.648;4.764;2022-11-11T13:46:38;14.70;;;7.22;;
64387;SDS011;50709;52.648;4.764;2022-11-11T13:49:18;13.68;;;7.57;;
64387;SDS011;50709;52.648;4.764;2022-11-11T13:51:58;13.73;;;6.60;;
64387;SDS011;50709;52.648;4.764;2022-11-11T13:57:16;14.40;;;7.72;;
64387;SDS011;50709;52.648;4.764;2022-11-11T13:59:57;12.98;;;7.47;;
64387;SDS011;50709;52.648;4.764;2022-11-11T14:02:29;14.30;;;6.90;;
64387;SDS011;50709;52.648;4.764;2022-11-11T14:10:08;16.58;;;7.32;;
64387;SDS011;50709;52.648;4.764;2022-11-11T14:12:54;12.85;;;6.93;;
64387;SDS011;50709;52.648;4.764;2022-11-11T14:18:02;16.50;;;7.85;;
64387;SDS011;50709;52.648;4.764;2022-11-11T14:25:42;15.27;;;8.65;;
64387;SDS011;50709;52.648;4.764;2022-11-11T14:28:26;15.82;;;7.85;;
64387;SDS011;50709;52.648;4.764;2022-11-11T14:31:24;16.38;;;7.88;;
64387;SDS011;50709;52.648;4.764;2022-11-11T14:33:50;16.42;;;8.40;;
64387;SDS011;50709;52.648;4.764;2022-11-11T14:36:31;20.52;;;7.90;;
64387;SDS011;50709;52.648;4.764;2022-11-11T14:39:18;12.60;;;7.53;;
64387;SDS011;50709;52.648;4.764;2022-11-11T14:41:56;17.25;;;7.78;;
64387;SDS011;50709;52.648;4.764;2022-11-11T14:52:14;22.23;;;8.45;;
64387;SDS011;50709;52.648;4.764;2022-11-11T14:57:31;17.55;;;8.57;;
64387;SDS011;50709;52.648;4.764;2022-11-11T15:00:00;22.15;;;9.23;;
64387;SDS011;50709;52.648;4.764;2022-11-11T15:02:28;21.73;;;9.95;;
64387;SDS011;50709;52.648;4.764;2022-11-11T15:04:58;22.42;;;9.40;;
64387;SDS011;50709;52.648;4.764;2022-11-11T15:07:36;18.15;;;8.90;;
64387;SDS011;50709;52.648;4.764;2022-11-11T15:10:28;24.63;;;9.85;;
64387;SDS011;50709;52.648;4.764;2022-11-11T15:16:15;22.92;;;9.40;;
64387;SDS011;50709;52.648;4.764;2022-11-11T15:18:55;19.35;;;9.45;;
64387;SDS011;50709;52.648;4.764;2022-11-11T15:21:51;19.25;;;8.48;;
64387;SDS011;50709;52.648;4.764;2022-11-11T15:27:16;19.00;;;9.00;;
64387;SDS011;50709;52.648;4.764;2022-11-11T15:32:31;18.88;;;8.73;;
64387;SDS011;50709;52.648;4.764;2022-11-11T15:37:31;19.47;;;8.43;;
64387;SDS011;50709;52.648;4.764;2022-11-11T15:39:57;17.65;;;8.68;;
64387;SDS011;50709;52.648;4.764;2022-11-11T15:42:35;19.20;;;8.90;;
64387;SDS011;50709;52.648;4.764;2022-11-11T15:45:11;17.45;;;8.75;;
64387;SDS011;50709;52.648;4.764;2022-11-11T15:47:45;19.55;;;8.55;;
64387;SDS011;50709;52.648;4.764;2022-11-11T15:50:22;17.45;;;8.20;;
64387;SDS011;50709;52.648;4.764;2022-11-11T15:52:55;22.40;;;9.13;;
64387;SDS011;50709;52.648;4.764;2022-11-11T15:55:22;20.83;;;8.60;;
64387;SDS011;50709;52.648;4.764;2022-11-11T15:57:52;18.27;;;8.80;;
64387;SDS011;50709;52.648;4.764;2022-11-11T16:05:23;18.25;;;7.88;;
64387;SDS011;50709;52.648;4.764;2022-11-11T16:07:50;17.63;;;8.10;;
64387;SDS011;50709;52.648;4.764;2022-11-11T16:10:23;16.55;;;8.10;;
64387;SDS011;50709;52.648;4.764;2022-11-11T16:13:14;20.10;;;8.02;;
64387;SDS011;50709;52.648;4.764;2022-11-11T16:15:45;19.23;;;8.40;;
64387;SDS011;50709;52.648;4.764;2022-11-11T16:20:54;15.90;;;7.93;;
64387;SDS011;50709;52.648;4.764;2022-11-11T16:23:27;21.10;;;8.55;;
64387;SDS011;50709;52.648;4.764;2022-11-11T16:25:53;17.65;;;7.97;;
64387;SDS011;50709;52.648;4.764;2022-11-11T16:28:22;14.90;;;8.95;;
64387;SDS011;50709;52.648;4.764;2022-11-11T16:30:47;18.98;;;8.48;;
64387;SDS011;50709;52.648;4.764;2022-11-11T16:35:50;17.45;;;8.70;;
64387;SDS011;50709;52.648;4.764;2022-11-11T16:38:31;19.92;;;9.00;;
64387;SDS011;50709;52.648;4.764;2022-11-11T16:40:56;16.10;;;8.15;;
64387;SDS011;50709;52.648;4.764;2022-11-11T16:45:57;16.98;;;9.38;;
64387;SDS011;50709;52.648;4.764;2022-11-11T16:48:34;16.40;;;8.90;;
64387;SDS011;50709;52.648;4.764;2022-11-11T16:51:11;20.90;;;9.10;;
64387;SDS011;50709;52.648;4.764;2022-11-11T16:53:52;20.25;;;9.25;;
64387;SDS011;50709;52.648;4.764;2022-11-11T16:56:30;17.38;;;8.85;;
64387;SDS011;50709;52.648;4.764;2022-11-11T16:59:02;16.42;;;8.68;;
64387;SDS011;50709;52.648;4.764;2022-11-11T17:01:41;16.30;;;8.45;;
64387;SDS011;50709;52.648;4.764;2022-11-11T17:04:08;19.65;;;10.20;;
64387;SDS011;50709;52.648;4.764;2022-11-11T17:06:54;22.00;;;9.00;;
64387;SDS011;50709;52.648;4.764;2022-11-11T17:09:35;21.52;;;9.45;;
64387;SDS011;50709;52.648;4.764;2022-11-11T17:12:03;21.83;;;9.93;;
64387;SDS011;50709;52.648;4.764;2022-11-11T17:14:31;19.98;;;8.60;;
64387;SDS011;50709;52.648;4.764;2022-11-11T17:17:01;16.23;;;8.40;;
64387;SDS011;50709;52.648;4.764;2022-11-11T17:19:29;19.50;;;9.45;;
64387;SDS011;50709;52.648;4.764;2022-11-11T17:22:03;15.10;;;8.52;;